createdAt,value
2019-05-16T00:00:01.834Z,16.61
2019-05-16T00:02:30.512Z,16.45
2019-05-16T00:04:59.278Z,16.52
2019-05-16T00:07:28.316Z,16.37
2019-05-16T00:09:59.023Z,16.43
2019-05-16T00:12:29.143Z,16.44
2019-05-16T00:14:58.218Z,16.48
2019-05-16T00:17:28.406Z,16.15
2019-05-16T00:19:58.950Z,16.21
2019-05-16T00:22:28.759Z,16.14
2019-05-16T00:24:58.041Z,16.18
2019-05-16T00:27:28.037Z,16.18
2019-05-16T00:29:58.172Z,16.05
2019-05-16T00:32:28.153Z,16.05
2019-05-16T00:34:58.341Z,16.10
2019-05-16T00:37:28.729Z,16.10
2019-05-16T00:39:58.815Z,16.01
2019-05-16T00:42:28.680Z,15.91
2019-05-16T00:44:58.341Z,16.02
2019-05-16T00:47:28.422Z,15.92
2019-05-16T00:49:58.230Z,15.92
2019-05-16T00:52:28.835Z,15.99
2019-05-16T00:54:57.983Z,15.96
2019-05-16T00:57:28.283Z,15.86
2019-05-16T00:59:59.165Z,16.00
2019-05-16T01:02:28.822Z,15.91
2019-05-16T01:04:58.940Z,15.94
2019-05-16T01:07:27.889Z,15.86
2019-05-16T01:09:58.281Z,15.80
2019-05-16T01:12:28.367Z,15.84
2019-05-16T01:14:58.477Z,15.93
2019-05-16T01:17:28.320Z,16.02
2019-05-16T01:19:57.852Z,15.97
2019-05-16T01:22:28.871Z,15.92
2019-05-16T01:24:58.469Z,15.96
2019-05-16T01:27:27.848Z,15.91
2019-05-16T01:29:58.357Z,15.92
2019-05-16T01:32:31.823Z,15.76
2019-05-16T01:34:58.931Z,15.81
2019-05-16T01:37:27.930Z,15.87
2019-05-16T01:39:58.587Z,15.85
2019-05-16T01:42:27.854Z,15.89
2019-05-16T01:44:57.838Z,15.71
2019-05-16T01:47:28.675Z,15.92
2019-05-16T01:49:58.005Z,15.96
2019-05-16T01:52:28.909Z,15.96
2019-05-16T01:54:58.711Z,15.99
2019-05-16T01:57:28.236Z,16.00
2019-05-16T01:59:58.753Z,15.90
2019-05-16T02:02:28.915Z,15.93
2019-05-16T02:04:59.026Z,15.85
2019-05-16T02:07:28.433Z,15.73
2019-05-16T02:09:58.264Z,15.82
2019-05-16T02:12:27.729Z,15.67
2019-05-16T02:14:58.578Z,15.76
2019-05-16T02:17:28.895Z,15.80
2019-05-16T02:19:57.833Z,15.54
2019-05-16T02:22:28.500Z,15.63
2019-05-16T02:24:58.512Z,15.63
2019-05-16T02:27:28.735Z,15.75
2019-05-16T02:29:57.457Z,15.67
2019-05-16T02:32:25.981Z,15.53
2019-05-16T02:34:54.457Z,15.44
2019-05-16T02:37:29.043Z,15.58
2019-05-16T02:39:54.634Z,15.54
2019-05-16T02:42:23.359Z,15.60
2019-05-16T02:44:51.739Z,15.55
2019-05-16T02:47:21.217Z,15.44
2019-05-16T02:49:50.643Z,15.23
2019-05-16T02:52:21.724Z,15.16
2019-05-16T02:54:51.723Z,15.34
2019-05-16T02:57:21.168Z,15.18
2019-05-16T02:59:51.030Z,15.14
2019-05-16T03:02:20.624Z,15.16
2019-05-16T03:04:51.775Z,15.30
2019-05-16T03:07:36.562Z,15.42
2019-05-16T03:09:53.214Z,15.24
2019-05-16T03:12:23.724Z,15.24
2019-05-16T03:14:54.617Z,15.34
2019-05-16T03:17:25.852Z,15.25
2019-05-16T03:19:57.494Z,15.30
2019-05-16T03:22:31.240Z,15.21
2019-05-16T03:25:01.141Z,15.16
2019-05-16T03:27:30.520Z,15.25
2019-05-16T03:30:01.788Z,15.34
2019-05-16T03:32:33.972Z,15.23
2019-05-16T03:35:05.222Z,15.32
2019-05-16T03:37:30.946Z,15.30
2019-05-16T03:40:00.572Z,15.28
2019-05-16T03:42:31.118Z,15.26
2019-05-16T03:45:02.149Z,15.22
2019-05-16T03:47:31.297Z,15.27
2019-05-16T03:50:00.799Z,15.20
2019-05-16T03:52:31.108Z,15.24
2019-05-16T03:55:01.657Z,15.37
2019-05-16T03:57:30.821Z,15.36
2019-05-16T04:00:00.557Z,15.41
2019-05-16T04:02:30.952Z,15.37
2019-05-16T04:05:01.741Z,15.61
2019-05-16T04:07:31.670Z,15.59
2019-05-16T04:10:02.184Z,15.46
2019-05-16T04:12:31.128Z,15.54
2019-05-16T04:15:01.881Z,15.59
2019-05-16T04:17:31.696Z,15.58
2019-05-16T04:20:01.926Z,15.68
2019-05-16T04:22:31.808Z,15.60
2019-05-16T04:25:01.932Z,15.48
2019-05-16T04:27:31.280Z,15.60
2019-05-16T04:30:01.544Z,15.40
2019-05-16T04:32:31.436Z,15.40
2019-05-16T04:35:02.630Z,15.55
2019-05-16T04:37:31.508Z,15.62
2019-05-16T04:40:01.225Z,15.61
2019-05-16T04:42:31.222Z,15.49
2019-05-16T04:45:01.243Z,15.55
2019-05-16T04:47:31.661Z,15.62
2019-05-16T04:50:01.821Z,15.60
2019-05-16T04:52:30.952Z,15.62
2019-05-16T04:55:00.703Z,15.68
2019-05-16T04:57:31.230Z,15.61
2019-05-16T05:00:02.338Z,15.55
2019-05-16T05:02:31.124Z,15.66
2019-05-16T05:05:01.304Z,15.80
2019-05-16T05:07:31.348Z,15.84
2019-05-16T05:10:00.764Z,15.90
2019-05-16T05:12:31.485Z,16.20
2019-05-16T05:15:01.247Z,16.08
2019-05-16T05:17:30.758Z,16.19
2019-05-16T05:20:01.021Z,16.35
2019-05-16T05:22:30.440Z,16.40
2019-05-16T05:25:00.132Z,16.60
2019-05-16T05:27:30.286Z,16.59
2019-05-16T05:30:00.984Z,16.75
2019-05-16T05:32:30.541Z,16.56
2019-05-16T05:35:20.651Z,16.52
2019-05-16T05:37:50.812Z,16.58
2019-05-16T05:40:20.041Z,16.45
2019-05-16T05:42:50.457Z,16.31
2019-05-16T05:45:20.150Z,16.45
2019-05-16T05:47:50.552Z,16.53
2019-05-16T05:50:20.282Z,16.59
2019-05-16T05:52:51.182Z,16.85
2019-05-16T05:55:20.053Z,16.88
2019-05-16T05:57:50.640Z,16.90
2019-05-16T06:00:21.034Z,17.03
2019-05-16T06:02:50.801Z,17.07
2019-05-16T06:05:20.200Z,17.29
2019-05-16T06:07:50.983Z,17.44
2019-05-16T06:10:19.992Z,17.47
2019-05-16T06:12:50.061Z,17.42
2019-05-16T06:15:20.263Z,17.30
2019-05-16T06:17:50.878Z,17.40
2019-05-16T06:20:20.278Z,17.41
2019-05-16T06:22:50.901Z,17.58
2019-05-16T06:25:22.761Z,17.68
2019-05-16T06:27:51.139Z,17.62
2019-05-16T06:30:21.525Z,17.55
2019-05-16T06:32:50.330Z,17.52
2019-05-16T06:35:20.558Z,17.44
2019-05-16T06:37:50.035Z,17.43
2019-05-16T06:40:20.308Z,17.53
2019-05-16T06:42:50.928Z,17.59
2019-05-16T06:45:20.504Z,17.68
2019-05-16T06:47:50.426Z,17.70
2019-05-16T06:50:20.921Z,17.87
2019-05-16T06:52:50.237Z,18.00
2019-05-16T06:55:20.502Z,18.00
2019-05-16T06:57:50.314Z,17.98
2019-05-16T07:00:21.053Z,17.72
2019-05-16T07:02:50.284Z,17.75
2019-05-16T07:05:20.771Z,17.86
2019-05-16T07:07:50.908Z,17.82
2019-05-16T07:10:20.402Z,17.95
2019-05-16T07:12:50.416Z,18.08
2019-05-16T07:15:20.684Z,18.02
2019-05-16T07:17:50.703Z,17.83
2019-05-16T07:20:21.081Z,17.92
2019-05-16T07:22:50.410Z,18.02
2019-05-16T07:25:20.812Z,18.23
2019-05-16T07:27:51.031Z,18.34
2019-05-16T07:30:20.782Z,18.37
2019-05-16T07:32:50.015Z,18.48
2019-05-16T07:35:20.469Z,18.64
2019-05-16T07:37:50.120Z,18.64
2019-05-16T07:40:25.687Z,18.77
2019-05-16T07:42:51.040Z,18.71
2019-05-16T07:45:20.450Z,18.69
2019-05-16T07:47:50.945Z,18.83
2019-05-16T07:50:20.348Z,19.12
2019-05-16T07:52:51.178Z,19.07
2019-05-16T07:55:20.921Z,19.08
2019-05-16T07:57:50.610Z,19.14
2019-05-16T08:00:21.667Z,19.09
2019-05-16T08:02:50.763Z,19.10
2019-05-16T08:05:21.106Z,19.27
2019-05-16T08:07:51.255Z,19.47
2019-05-16T08:10:37.028Z,19.59
2019-05-16T08:12:51.539Z,19.59
2019-05-16T08:15:21.389Z,19.71
2019-05-16T08:17:51.267Z,19.54
2019-05-16T08:20:21.314Z,19.51
2019-05-16T08:22:50.953Z,19.37
2019-05-16T08:25:20.481Z,19.51
2019-05-16T08:27:51.998Z,19.67
2019-05-16T08:30:21.041Z,19.62
2019-05-16T08:32:52.892Z,19.33
2019-05-16T08:35:21.308Z,19.31
2019-05-16T08:37:51.461Z,19.41
2019-05-16T08:40:21.663Z,19.49
2019-05-16T08:42:51.989Z,19.44
2019-05-16T08:45:21.320Z,19.56
2019-05-16T08:47:52.626Z,19.85
2019-05-16T08:50:21.738Z,19.96
2019-05-16T08:52:52.923Z,20.14
2019-05-16T08:55:21.784Z,20.32
2019-05-16T09:00:22.695Z,20.31
2019-05-16T09:02:52.389Z,20.61
2019-05-16T09:05:22.660Z,20.65
2019-05-16T09:08:00.109Z,20.93
2019-05-16T09:10:31.975Z,20.26
2019-05-16T09:12:52.530Z,21.07
2019-05-16T09:15:21.042Z,20.73
2019-05-16T09:17:49.635Z,20.94
2019-05-16T09:20:18.416Z,21.22
2019-05-16T09:22:48.176Z,21.38
2019-05-16T09:25:18.510Z,21.26
2019-05-16T09:27:47.368Z,21.19
2019-05-16T09:30:17.454Z,21.09
2019-05-16T09:32:47.983Z,21.41
2019-05-16T09:35:17.538Z,21.54
2019-05-16T09:37:47.313Z,21.45
2019-05-16T09:40:17.613Z,21.50
2019-05-16T09:42:47.335Z,21.58
2019-05-16T09:45:17.225Z,21.52
2019-05-16T09:47:48.504Z,21.64
2019-05-16T09:50:17.646Z,21.59
2019-05-16T09:52:47.299Z,21.59
2019-05-16T09:55:17.549Z,21.53
2019-05-16T09:57:47.036Z,21.57
2019-05-16T10:00:17.970Z,21.65
2019-05-16T10:02:47.649Z,21.86
2019-05-16T10:05:18.407Z,21.94
2019-05-16T10:07:47.338Z,21.92
2019-05-16T10:10:17.136Z,21.90
2019-05-16T10:12:45.894Z,22.00
2019-05-16T10:15:17.454Z,22.01
2019-05-16T10:17:47.724Z,22.06
2019-05-16T10:20:17.197Z,22.16
2019-05-16T10:22:50.074Z,22.27
2019-05-16T10:25:19.056Z,22.37
2019-05-16T10:27:47.523Z,22.38
2019-05-16T10:30:18.649Z,22.28
2019-05-16T10:32:47.975Z,22.26
2019-05-16T10:35:17.358Z,22.16
2019-05-16T10:37:47.079Z,22.08
2019-05-16T10:40:18.231Z,22.31
2019-05-16T10:42:47.416Z,22.22
2019-05-16T10:45:16.652Z,21.91
2019-05-16T10:47:47.855Z,21.97
2019-05-16T10:50:16.802Z,22.07
2019-05-16T10:52:48.884Z,22.14
2019-05-16T10:55:17.643Z,22.22
2019-05-16T10:57:47.526Z,22.22
2019-05-16T11:00:39.635Z,22.28
2019-05-16T11:02:48.638Z,22.26
2019-05-16T11:05:28.836Z,22.26
2019-05-16T11:07:52.312Z,22.28
2019-05-16T11:10:18.615Z,22.43
2019-05-16T11:12:54.839Z,22.47
2019-05-16T11:15:18.212Z,22.64
2019-05-16T11:17:46.588Z,22.77
2019-05-16T11:20:20.209Z,22.70
2019-05-16T11:22:49.371Z,22.79
2019-05-16T11:25:25.088Z,22.57
2019-05-16T11:27:48.538Z,22.87
2019-05-16T11:30:18.463Z,22.71
2019-05-16T11:32:47.246Z,22.40
2019-05-16T11:35:17.342Z,22.22
2019-05-16T11:37:47.187Z,22.18
2019-05-16T11:40:17.954Z,21.92
2019-05-16T11:42:51.865Z,21.91
2019-05-16T11:45:17.560Z,21.93
2019-05-16T11:47:47.079Z,21.90
2019-05-16T11:50:17.575Z,21.88
2019-05-16T11:52:47.663Z,21.74
2019-05-16T11:55:16.533Z,21.80
2019-05-16T11:57:47.386Z,21.83
2019-05-16T12:00:17.801Z,21.83
2019-05-16T12:02:47.758Z,21.73
2019-05-16T12:05:39.473Z,21.82
2019-05-16T12:08:08.203Z,21.73
2019-05-16T12:10:36.999Z,21.60
2019-05-16T12:13:09.061Z,21.46
2019-05-16T12:15:36.724Z,21.48
2019-05-16T12:18:08.335Z,21.31
2019-05-16T12:20:36.093Z,21.29
2019-05-16T12:23:07.759Z,20.76
2019-05-16T12:25:36.841Z,20.56
2019-05-16T12:28:08.135Z,20.52
2019-05-16T12:30:37.650Z,20.65
2019-05-16T12:33:07.416Z,20.78
2019-05-16T12:35:36.859Z,20.66
2019-05-16T12:38:08.118Z,20.86
2019-05-16T12:40:37.633Z,21.12
2019-05-16T12:43:07.750Z,21.24
2019-05-16T12:45:38.647Z,21.04
2019-05-16T12:48:07.233Z,21.15
2019-05-16T12:50:38.782Z,20.97
2019-05-16T12:53:08.039Z,21.16
2019-05-16T12:55:37.102Z,21.14
2019-05-16T12:58:13.695Z,21.07
2019-05-16T13:00:37.037Z,20.84
2019-05-16T13:03:07.224Z,20.84
2019-05-16T13:05:37.698Z,20.69
2019-05-16T13:08:06.581Z,20.65
2019-05-16T13:10:37.751Z,20.64
2019-05-16T13:13:07.850Z,20.83
2019-05-16T13:15:37.913Z,20.69
2019-05-16T13:18:07.869Z,20.83
2019-05-16T13:20:39.239Z,21.11
2019-05-16T13:23:14.416Z,21.16
2019-05-16T13:25:38.184Z,21.06
2019-05-16T13:28:08.146Z,21.17
2019-05-16T13:30:37.777Z,21.10
2019-05-16T13:33:07.377Z,21.21
2019-05-16T13:35:37.179Z,21.20
2019-05-16T13:38:07.872Z,21.29
2019-05-16T13:40:36.779Z,21.29
2019-05-16T13:43:09.527Z,21.41
2019-05-16T13:45:37.750Z,21.35
2019-05-16T13:48:08.137Z,21.38
2019-05-16T13:50:39.663Z,21.43
2019-05-16T13:53:07.987Z,21.49
2019-05-16T13:55:37.822Z,21.60
2019-05-16T13:58:07.670Z,21.60
2019-05-16T14:00:37.550Z,21.71
2019-05-16T14:03:07.564Z,21.71
2019-05-16T14:05:38.083Z,21.65
2019-05-16T14:08:06.970Z,21.75
2019-05-16T14:10:37.515Z,21.76
2019-05-16T14:13:07.437Z,21.74
2019-05-16T14:15:36.839Z,21.86
2019-05-16T14:18:07.661Z,21.82
2019-05-16T14:20:37.807Z,21.95
2019-05-16T14:23:08.498Z,21.94
2019-05-16T14:25:38.011Z,22.05
2019-05-16T14:28:07.784Z,22.08
2019-05-16T14:30:37.438Z,22.03
2019-05-16T14:33:13.586Z,22.09
2019-05-16T14:35:37.605Z,22.06
2019-05-16T14:38:06.530Z,22.10
2019-05-16T14:40:37.471Z,22.17
2019-05-16T14:43:08.135Z,22.29
2019-05-16T14:45:37.172Z,22.24
2019-05-16T14:48:07.703Z,22.26
2019-05-16T14:50:37.558Z,22.31
2019-05-16T14:53:07.466Z,22.40
2019-05-16T14:55:38.072Z,22.41
2019-05-16T14:58:07.665Z,22.46
2019-05-16T15:00:38.229Z,22.39
2019-05-16T15:03:08.194Z,22.34
2019-05-16T15:05:42.328Z,22.42
2019-05-16T15:08:08.590Z,22.48
2019-05-16T15:10:37.921Z,22.49
2019-05-16T15:13:07.864Z,22.50
2019-05-16T15:15:37.721Z,22.46
2019-05-16T15:18:08.040Z,22.49
2019-05-16T15:20:38.018Z,22.45
2019-05-16T15:23:07.608Z,22.40
2019-05-16T15:25:37.499Z,22.36
2019-05-16T15:28:07.550Z,22.38
2019-05-16T15:30:39.142Z,22.37
2019-05-16T15:33:08.495Z,22.22
2019-05-16T15:35:38.263Z,22.24
2019-05-16T15:38:08.077Z,22.22
2019-05-16T15:40:37.737Z,22.21
2019-05-16T15:43:07.961Z,22.21
2019-05-16T15:45:43.959Z,22.16
2019-05-16T15:48:10.938Z,22.20
2019-05-16T15:50:39.766Z,22.16
2019-05-16T15:53:08.351Z,22.12
2019-05-16T15:55:37.450Z,22.11
2019-05-16T15:58:09.722Z,22.12
2019-05-16T16:00:42.066Z,22.07
2019-05-16T16:03:11.498Z,21.94
2019-05-16T16:05:39.986Z,21.95
2019-05-16T16:08:08.670Z,21.95
2019-05-16T16:10:38.489Z,21.89
2019-05-16T16:13:07.569Z,21.90
2019-05-16T16:15:49.806Z,21.91
2019-05-16T16:18:09.011Z,21.91
2019-05-16T16:20:37.867Z,21.91
2019-05-16T16:23:06.966Z,21.84
2019-05-16T16:25:35.721Z,21.84
2019-05-16T16:28:07.388Z,21.78
2019-05-16T16:30:37.268Z,21.82
2019-05-16T16:33:19.067Z,21.81
2019-05-16T16:35:37.971Z,21.78
2019-05-16T16:38:07.292Z,21.75
2019-05-16T16:40:37.492Z,21.69
2019-05-16T16:43:07.906Z,21.68
2019-05-16T16:45:36.800Z,21.64
2019-05-16T16:48:07.605Z,21.60
2019-05-16T16:50:37.085Z,21.51
2019-05-16T16:53:07.157Z,21.45
2019-05-16T16:55:37.031Z,21.45
2019-05-16T16:58:09.235Z,21.46
2019-05-16T17:00:37.839Z,21.40
2019-05-16T17:03:10.350Z,21.38
2019-05-16T17:05:37.393Z,21.34
2019-05-16T17:08:07.561Z,21.26
2019-05-16T17:10:37.969Z,21.09
2019-05-16T17:13:07.048Z,21.04
2019-05-16T17:15:36.684Z,21.11
2019-05-16T17:18:06.984Z,21.02
2019-05-16T17:20:37.183Z,20.94
2019-05-16T17:23:06.849Z,20.96
2019-05-16T17:25:36.902Z,20.90
2019-05-16T17:28:06.938Z,20.82
2019-05-16T17:30:36.779Z,20.91
2019-05-16T17:33:07.698Z,20.77
2019-05-16T17:35:38.934Z,20.75
2019-05-16T17:38:06.987Z,20.69
2019-05-16T17:40:38.047Z,20.77
2019-05-16T17:43:07.264Z,20.64
2019-05-16T17:45:37.477Z,20.79
2019-05-16T17:48:06.973Z,20.46
2019-05-16T17:50:37.391Z,20.54
2019-05-16T17:53:07.216Z,20.43
2019-05-16T17:55:37.028Z,20.39
2019-05-16T17:58:08.780Z,20.42
2019-05-16T18:00:36.625Z,20.16
2019-05-16T18:03:06.639Z,20.25
2019-05-16T18:05:37.144Z,20.14
2019-05-16T18:08:07.377Z,20.11
2019-05-16T18:10:36.559Z,20.20
2019-05-16T18:13:07.614Z,20.14
2019-05-16T18:15:36.750Z,20.13
2019-05-16T18:18:07.234Z,20.08
2019-05-16T18:20:37.207Z,20.19
2019-05-16T18:23:07.041Z,20.14
2019-05-16T18:25:36.720Z,20.02
2019-05-16T18:28:07.887Z,19.92
2019-05-16T18:30:36.624Z,20.10
2019-05-16T18:33:07.266Z,19.97
2019-05-16T18:35:36.982Z,19.98
2019-05-16T18:38:07.340Z,19.92
2019-05-16T18:40:36.850Z,19.79
2019-05-16T18:43:08.260Z,19.83
2019-05-16T18:45:36.742Z,19.74
2019-05-16T18:48:07.364Z,19.56
2019-05-16T18:50:37.810Z,19.34
2019-05-16T18:53:07.699Z,19.25
2019-05-16T18:55:37.046Z,19.07
2019-05-16T18:58:08.425Z,18.96
2019-05-16T19:00:37.528Z,18.95
2019-05-16T19:03:07.655Z,19.16
2019-05-16T19:05:37.406Z,18.66
2019-05-16T19:08:07.345Z,18.81
2019-05-16T19:10:37.111Z,18.46
2019-05-16T19:13:08.207Z,18.71
2019-05-16T19:15:37.685Z,18.58
2019-05-16T19:18:06.951Z,18.40
2019-05-16T19:20:37.419Z,18.20
2019-05-16T19:23:07.508Z,18.28
2019-05-16T19:25:36.519Z,18.35
2019-05-16T19:28:06.880Z,18.70
2019-05-16T19:30:37.380Z,18.19
2019-05-16T19:33:07.063Z,18.21
2019-05-16T19:35:35.865Z,18.36
2019-05-16T19:38:06.699Z,18.27
2019-05-16T19:40:37.551Z,18.12
2019-05-16T19:43:07.246Z,18.11
2019-05-16T19:45:37.293Z,17.93
2019-05-16T19:48:07.253Z,17.78
2019-05-16T19:50:37.124Z,17.78
2019-05-16T19:53:07.709Z,17.85
2019-05-16T19:55:36.681Z,17.76
2019-05-16T19:58:06.985Z,17.94
2019-05-16T20:00:37.573Z,17.74
2019-05-16T20:03:07.742Z,17.92
2019-05-16T20:05:37.599Z,17.59
2019-05-16T20:08:06.816Z,17.69
2019-05-16T20:10:36.679Z,17.90
2019-05-16T20:13:07.700Z,17.77
2019-05-16T20:15:36.626Z,17.80
2019-05-16T20:18:07.662Z,17.59
2019-05-16T20:20:37.205Z,17.62
2019-05-16T20:23:06.082Z,17.65
2019-05-16T20:25:36.661Z,17.63
2019-05-16T20:28:08.484Z,17.57
2019-05-16T20:30:37.095Z,17.43
2019-05-16T20:33:08.911Z,17.50
2019-05-16T20:35:37.521Z,17.59
2019-05-16T20:38:07.006Z,17.57
2019-05-16T20:40:37.571Z,17.65
2019-05-16T20:43:07.758Z,17.61
2019-05-16T20:45:39.556Z,17.64
2019-05-16T20:48:12.017Z,17.66
2019-05-16T20:50:37.610Z,17.48
2019-05-16T20:53:07.226Z,17.40
2019-05-16T20:55:37.719Z,17.55
2019-05-16T20:58:07.568Z,17.51
2019-05-16T21:00:37.787Z,17.44
2019-05-16T21:03:07.269Z,17.57
2019-05-16T21:05:38.360Z,17.51
2019-05-16T21:08:06.760Z,17.26
2019-05-16T21:10:35.446Z,17.06
2019-05-16T21:13:06.706Z,16.92
2019-05-16T21:15:37.056Z,17.01
2019-05-16T21:18:07.505Z,17.04
2019-05-16T21:20:38.900Z,17.12
2019-05-16T21:23:07.971Z,17.08
2019-05-16T21:25:37.253Z,16.92
2019-05-16T21:28:07.962Z,16.94
2019-05-16T21:30:37.139Z,16.94
2019-05-16T21:33:05.969Z,16.88
2019-05-16T21:35:36.494Z,16.64
2019-05-16T21:38:08.742Z,16.49
2019-05-16T21:40:37.113Z,16.68
2019-05-16T21:43:07.564Z,16.69
2019-05-16T21:45:37.126Z,16.51
2019-05-16T21:48:07.434Z,16.31
2019-05-16T21:50:36.846Z,16.34
2019-05-16T21:53:07.301Z,16.40
2019-05-16T21:55:37.108Z,16.30
2019-05-16T21:58:05.962Z,16.36
2019-05-16T22:00:42.249Z,16.22
2019-05-16T22:03:11.141Z,16.18
2019-05-16T22:05:39.891Z,16.24
2019-05-16T22:08:11.693Z,16.12
2019-05-16T22:10:39.550Z,16.17
2019-05-16T22:13:08.347Z,16.24
2019-05-16T22:15:37.175Z,16.08
2019-05-16T22:18:07.206Z,15.96
2019-05-16T22:20:36.363Z,16.06
2019-05-16T22:23:07.089Z,16.25
2019-05-16T22:25:36.133Z,16.10
2019-05-16T22:28:07.168Z,16.05
2019-05-16T22:30:36.539Z,16.13
2019-05-16T22:33:08.856Z,16.01
2019-05-16T22:35:37.549Z,16.02
2019-05-16T22:38:06.663Z,15.97
2019-05-16T22:40:37.408Z,15.93
2019-05-16T22:43:07.222Z,16.17
2019-05-16T22:45:37.335Z,16.22
2019-05-16T22:48:07.008Z,16.13
2019-05-16T22:50:36.433Z,16.20
2019-05-16T22:53:06.462Z,16.20
2019-05-16T22:55:37.200Z,16.07
2019-05-16T22:58:07.396Z,16.17
2019-05-16T23:00:39.315Z,16.10
2019-05-16T23:03:06.794Z,16.26
2019-05-16T23:05:36.887Z,16.06
2019-05-16T23:08:09.456Z,16.19
2019-05-16T23:10:36.868Z,16.10
2019-05-16T23:13:06.787Z,16.13
2019-05-16T23:15:36.173Z,16.09
2019-05-16T23:18:06.997Z,16.00
2019-05-16T23:20:36.994Z,16.11
2019-05-16T23:23:07.161Z,15.89
2019-05-16T23:25:37.158Z,15.86
2019-05-16T23:28:07.764Z,16.02
2019-05-16T23:30:36.672Z,15.76
2019-05-16T23:33:07.256Z,15.81
2019-05-16T23:35:37.677Z,15.89
2019-05-16T23:38:19.070Z,15.71
2019-05-16T23:40:37.521Z,15.82
2019-05-16T23:43:07.622Z,15.85
2019-05-16T23:45:37.584Z,15.76
2019-05-16T23:48:10.518Z,15.83
2019-05-16T23:50:37.057Z,15.83
2019-05-16T23:53:07.366Z,15.86
2019-05-16T23:55:37.178Z,15.64
2019-05-16T23:58:06.917Z,15.82
